createdAt,value
2023-05-19T00:02:09.428Z,75.49
2023-05-19T00:04:42.969Z,75.21
2023-05-19T00:07:16.491Z,75.76
2023-05-19T00:09:49.567Z,75.69
2023-05-19T00:12:21.935Z,75.73
2023-05-19T00:14:54.732Z,75.86
2023-05-19T00:17:27.610Z,76.30
2023-05-19T00:19:59.470Z,76.17
2023-05-19T00:22:31.736Z,76.75
2023-05-19T00:25:04.208Z,76.56
2023-05-19T00:27:36.213Z,77.10
2023-05-19T00:30:10.370Z,76.71
2023-05-19T00:32:42.669Z,76.73
2023-05-19T00:35:14.729Z,76.46
2023-05-19T00:37:46.821Z,76.67
2023-05-19T00:40:19.072Z,76.81
2023-05-19T00:42:51.263Z,77.09
2023-05-19T00:45:23.210Z,77.27
2023-05-19T00:47:56.170Z,77.53
2023-05-19T00:50:28.664Z,78.10
2023-05-19T00:53:00.759Z,77.65
2023-05-19T00:55:34.415Z,78.11
2023-05-19T00:58:07.618Z,78.04
2023-05-19T01:00:39.918Z,78.79
2023-05-19T01:03:12.714Z,78.21
2023-05-19T01:05:45.346Z,78.31
2023-05-19T01:08:18.364Z,78.68
2023-05-19T01:10:50.397Z,78.68
2023-05-19T01:13:22.718Z,78.91
2023-05-19T01:16:02.011Z,78.90
2023-05-19T01:18:44.249Z,79.31
2023-05-19T01:21:36.636Z,78.89
2023-05-19T01:24:23.082Z,78.66
2023-05-19T01:27:17.487Z,78.89
2023-05-19T01:30:26.723Z,78.69
2023-05-19T01:33:01.878Z,78.76
2023-05-19T01:35:35.838Z,79.04
2023-05-19T01:38:08.887Z,79.41
2023-05-19T01:40:42.766Z,79.36
2023-05-19T01:43:21.275Z,79.09
2023-05-19T01:45:53.996Z,79.25
2023-05-19T01:48:26.416Z,80.36
2023-05-19T01:50:58.789Z,79.97
2023-05-19T01:53:30.629Z,80.11
2023-05-19T01:56:02.757Z,80.03
2023-05-19T01:58:41.546Z,80.30
2023-05-19T02:01:21.536Z,80.08
2023-05-19T02:04:08.521Z,79.87
2023-05-19T02:06:46.137Z,80.60
2023-05-19T02:09:26.986Z,80.45
2023-05-19T02:12:02.907Z,80.51
2023-05-19T02:14:40.723Z,80.57
2023-05-19T02:17:17.105Z,80.69
2023-05-19T02:19:49.298Z,80.62
2023-05-19T02:22:21.438Z,80.84
2023-05-19T02:24:53.621Z,80.93
2023-05-19T02:27:26.417Z,80.52
2023-05-19T02:29:59.063Z,80.96
2023-05-19T02:32:31.239Z,80.54
2023-05-19T02:35:04.079Z,80.99
2023-05-19T02:37:37.378Z,81.03
2023-05-19T02:40:12.886Z,80.94
2023-05-19T02:42:44.822Z,81.13
2023-05-19T02:45:17.211Z,81.69
2023-05-19T02:47:49.315Z,81.98
2023-05-19T02:50:22.688Z,82.14
2023-05-19T02:52:54.724Z,82.07
2023-05-19T02:55:26.888Z,81.85
2023-05-19T02:57:58.816Z,82.30
2023-05-19T03:00:30.896Z,82.93
2023-05-19T03:03:04.704Z,82.62
2023-05-19T03:05:36.997Z,82.62
2023-05-19T03:08:09.465Z,82.51
2023-05-19T03:10:41.410Z,83.45
2023-05-19T03:13:13.526Z,83.83
2023-05-19T03:15:45.324Z,83.41
2023-05-19T03:18:17.594Z,84.41
2023-05-19T03:20:49.931Z,83.85
2023-05-19T03:23:22.375Z,83.86
2023-05-19T03:25:56.187Z,84.00
2023-05-19T03:28:28.092Z,84.16
2023-05-19T03:31:00.013Z,83.99
2023-05-19T03:33:32.445Z,83.90
2023-05-19T03:36:05.295Z,84.21
2023-05-19T03:38:37.532Z,84.31
2023-05-19T03:41:09.502Z,84.80
2023-05-19T03:43:41.888Z,84.51
2023-05-19T03:46:13.986Z,84.71
2023-05-19T03:48:46.512Z,84.95
2023-05-19T03:51:18.382Z,84.42
2023-05-19T03:53:52.107Z,84.46
2023-05-19T03:56:26.633Z,84.44
2023-05-19T03:58:59.585Z,84.64
2023-05-19T04:01:31.821Z,85.00
2023-05-19T04:04:03.799Z,84.86
2023-05-19T04:06:36.475Z,85.01
2023-05-19T04:09:14.670Z,85.08
2023-05-19T04:11:46.959Z,85.34
2023-05-19T04:14:20.215Z,85.56
2023-05-19T04:16:53.956Z,85.48
2023-05-19T04:19:26.625Z,85.41
2023-05-19T04:21:58.848Z,85.74
2023-05-19T04:24:33.868Z,85.64
2023-05-19T04:27:12.186Z,85.72
2023-05-19T04:29:46.205Z,86.19
2023-05-19T04:32:18.674Z,85.97
2023-05-19T04:34:51.368Z,86.15
2023-05-19T04:37:24.310Z,85.95
2023-05-19T04:39:56.567Z,86.03
2023-05-19T04:42:30.880Z,85.67
2023-05-19T04:45:03.895Z,86.05
2023-05-19T04:47:36.956Z,86.39
2023-05-19T04:50:11.553Z,86.22
2023-05-19T04:52:45.776Z,86.00
2023-05-19T04:55:18.237Z,86.08
2023-05-19T04:57:50.930Z,86.90
2023-05-19T05:00:25.412Z,87.19
2023-05-19T05:02:58.093Z,87.02
2023-05-19T05:05:30.387Z,87.13
2023-05-19T05:08:03.350Z,87.41
2023-05-19T05:10:35.591Z,87.57
2023-05-19T05:13:09.983Z,87.29
2023-05-19T05:15:44.023Z,87.24
2023-05-19T05:18:17.937Z,87.53
2023-05-19T05:20:51.358Z,88.13
2023-05-19T05:23:24.520Z,87.44
2023-05-19T05:25:57.445Z,88.37
2023-05-19T05:28:31.505Z,88.31
2023-05-19T05:31:03.493Z,90.03
2023-05-19T05:33:36.074Z,89.72
2023-05-19T05:36:09.352Z,89.32
2023-05-19T05:38:41.578Z,88.79
2023-05-19T05:41:13.677Z,89.25
2023-05-19T05:43:45.600Z,89.18
2023-05-19T05:46:17.711Z,88.86
2023-05-19T05:48:50.551Z,89.27
2023-05-19T05:51:24.569Z,88.87
2023-05-19T05:53:55.871Z,89.20
2023-05-19T05:56:29.485Z,89.04
2023-05-19T05:59:03.476Z,89.09
2023-05-19T06:01:36.013Z,88.61
2023-05-19T06:04:08.136Z,88.69
2023-05-19T06:06:40.062Z,88.80
2023-05-19T06:09:12.602Z,88.59
2023-05-19T06:11:45.572Z,88.62
2023-05-19T06:14:19.300Z,88.88
2023-05-19T06:16:52.399Z,89.41
2023-05-19T06:19:27.744Z,89.47
2023-05-19T06:22:02.812Z,89.11
2023-05-19T06:24:35.217Z,88.79
2023-05-19T06:27:08.672Z,88.66
2023-05-19T06:29:40.598Z,88.61
2023-05-19T06:32:12.550Z,88.88
2023-05-19T06:34:44.638Z,88.53
2023-05-19T06:37:21.064Z,88.58
2023-05-19T06:39:53.514Z,88.43
2023-05-19T06:42:26.110Z,88.34
2023-05-19T06:44:58.749Z,88.69
2023-05-19T06:47:31.104Z,88.33
2023-05-19T06:50:03.048Z,88.22
2023-05-19T06:52:35.246Z,88.29
2023-05-19T06:55:09.109Z,88.47
2023-05-19T06:57:44.252Z,88.83
2023-05-19T07:00:20.585Z,88.26
2023-05-19T07:02:55.439Z,88.28
2023-05-19T07:05:29.491Z,89.31
2023-05-19T07:08:01.772Z,89.32
2023-05-19T07:10:34.603Z,89.37
2023-05-19T07:13:06.909Z,89.32
2023-05-19T07:15:39.371Z,89.29
2023-05-19T07:18:11.508Z,89.03
2023-05-19T07:20:45.571Z,89.07
2023-05-19T07:23:17.743Z,89.00
2023-05-19T07:25:49.900Z,89.28
2023-05-19T07:28:24.029Z,89.53
2023-05-19T07:30:56.924Z,90.05
2023-05-19T07:33:30.164Z,89.97
2023-05-19T07:36:02.599Z,89.54
2023-05-19T07:38:35.324Z,89.57
2023-05-19T07:41:07.871Z,89.66
2023-05-19T07:43:40.005Z,89.60
2023-05-19T07:46:12.105Z,89.30
2023-05-19T07:48:44.259Z,89.25
2023-05-19T07:51:16.742Z,89.28
2023-05-19T07:53:49.225Z,89.10
2023-05-19T07:56:22.885Z,88.63
2023-05-19T07:58:55.272Z,88.86
2023-05-19T08:01:30.706Z,88.49
2023-05-19T08:04:03.527Z,88.49
2023-05-19T08:06:35.622Z,88.18
2023-05-19T08:09:07.718Z,88.44
2023-05-19T08:11:39.648Z,88.29
2023-05-19T08:14:11.901Z,88.21
2023-05-19T08:16:45.916Z,87.96
2023-05-19T08:19:17.874Z,87.89
2023-05-19T08:21:50.784Z,87.89
2023-05-19T08:24:24.282Z,87.91
2023-05-19T08:26:57.018Z,87.92
2023-05-19T08:29:30.194Z,87.92
2023-05-19T08:32:03.809Z,87.06
2023-05-19T08:34:36.244Z,87.21
2023-05-19T08:37:08.914Z,86.65
2023-05-19T08:39:40.868Z,86.83
2023-05-19T08:42:12.784Z,86.92
2023-05-19T08:44:44.978Z,87.41
2023-05-19T08:47:18.985Z,87.54
2023-05-19T08:49:56.709Z,86.95
2023-05-19T08:52:37.135Z,87.16
2023-05-19T08:55:14.499Z,87.00
2023-05-19T08:57:46.596Z,86.90
2023-05-19T09:00:20.184Z,87.03
2023-05-19T09:03:00.856Z,86.90
2023-05-19T09:05:33.910Z,86.54
2023-05-19T09:08:07.364Z,86.66
2023-05-19T09:10:39.276Z,86.61
2023-05-19T09:13:11.558Z,86.70
2023-05-19T09:15:44.941Z,86.66
2023-05-19T09:18:17.156Z,86.53
2023-05-19T09:20:49.429Z,86.56
2023-05-19T09:23:25.101Z,86.39
2023-05-19T09:25:59.082Z,86.31
2023-05-19T09:28:33.396Z,86.30
2023-05-19T09:31:07.863Z,86.49
2023-05-19T09:33:45.526Z,86.12
2023-05-19T09:36:18.110Z,85.89
2023-05-19T09:38:49.977Z,85.79
2023-05-19T09:41:23.422Z,85.31
2023-05-19T09:43:58.618Z,85.28
2023-05-19T09:46:32.303Z,85.44
2023-05-19T09:49:11.865Z,85.43
2023-05-19T09:51:45.932Z,85.21
2023-05-19T09:54:19.089Z,84.88
2023-05-19T09:56:57.671Z,84.88
2023-05-19T09:59:33.011Z,84.86
2023-05-19T10:02:06.496Z,84.98
2023-05-19T10:04:39.309Z,84.94
2023-05-19T10:07:14.483Z,84.80
2023-05-19T10:09:50.111Z,84.44
2023-05-19T10:12:22.949Z,84.06
2023-05-19T10:14:56.479Z,84.20
2023-05-19T10:17:29.440Z,83.79
2023-05-19T10:20:04.138Z,83.64
2023-05-19T10:22:36.649Z,84.00
2023-05-19T10:25:10.768Z,83.64
2023-05-19T10:27:49.079Z,83.68
2023-05-19T10:30:27.502Z,83.66
2023-05-19T10:33:00.454Z,83.29
2023-05-19T10:35:44.570Z,82.85
2023-05-19T10:38:22.234Z,82.82
2023-05-19T10:41:02.704Z,82.98
2023-05-19T10:43:43.562Z,83.06
2023-05-19T10:46:16.047Z,82.95
2023-05-19T10:48:49.041Z,82.86
2023-05-19T10:51:21.777Z,82.57
2023-05-19T10:53:54.316Z,82.23
2023-05-19T10:56:36.337Z,82.00
2023-05-19T10:59:09.640Z,82.04
2023-05-19T11:01:44.136Z,81.88
2023-05-19T11:04:16.427Z,81.95
2023-05-19T11:06:53.716Z,81.42
2023-05-19T11:09:39.665Z,81.49
2023-05-19T11:12:12.725Z,81.40
2023-05-19T11:14:46.770Z,81.31
2023-05-19T11:17:22.129Z,80.90
2023-05-19T11:20:02.521Z,80.60
2023-05-19T11:22:37.271Z,80.53
2023-05-19T11:25:11.233Z,79.76
2023-05-19T11:27:47.095Z,79.28
2023-05-19T11:30:20.993Z,79.35
2023-05-19T11:32:53.414Z,79.38
2023-05-19T11:35:26.187Z,79.09
2023-05-19T11:38:00.894Z,79.22
2023-05-19T11:40:33.531Z,79.32
2023-05-19T11:43:05.437Z,79.44
2023-05-19T11:45:38.107Z,79.46
2023-05-19T11:48:16.102Z,79.48
2023-05-19T11:50:49.053Z,79.44
2023-05-19T11:53:24.566Z,78.18
2023-05-19T11:55:58.629Z,78.35
2023-05-19T11:58:31.795Z,77.60
2023-05-19T12:01:10.863Z,77.53
2023-05-19T12:03:44.766Z,77.81
2023-05-19T12:06:17.601Z,78.16
2023-05-19T12:08:49.786Z,78.24
2023-05-19T12:11:22.173Z,77.92
2023-05-19T12:13:58.108Z,77.90
2023-05-19T12:16:36.833Z,77.66
2023-05-19T12:19:14.712Z,77.39
2023-05-19T12:21:48.796Z,77.48
2023-05-19T12:24:22.123Z,77.73
2023-05-19T12:26:54.362Z,78.04
2023-05-19T12:29:30.716Z,78.06
2023-05-19T12:32:04.642Z,77.96
2023-05-19T12:34:39.561Z,77.39
2023-05-19T12:37:15.905Z,76.91
2023-05-19T12:39:49.363Z,76.79
2023-05-19T12:42:26.658Z,76.99
2023-05-19T12:45:00.753Z,77.10
2023-05-19T12:47:36.576Z,76.77
2023-05-19T12:50:13.186Z,77.10
2023-05-19T12:52:48.596Z,76.82
2023-05-19T12:55:22.374Z,76.61
2023-05-19T12:57:58.285Z,77.01
2023-05-19T13:00:32.868Z,77.03
2023-05-19T13:03:07.918Z,76.68
2023-05-19T13:05:43.774Z,76.84
2023-05-19T13:08:17.304Z,76.92
2023-05-19T13:10:50.947Z,76.48
2023-05-19T13:13:23.329Z,76.56
2023-05-19T13:15:57.367Z,76.73
2023-05-19T13:18:32.667Z,76.00
2023-05-19T13:21:05.810Z,76.28
2023-05-19T13:23:38.109Z,75.94
2023-05-19T13:26:12.826Z,76.18
2023-05-19T13:28:44.845Z,76.36
2023-05-19T13:31:16.894Z,76.19
2023-05-19T13:33:49.033Z,76.04
2023-05-19T13:36:21.066Z,76.13
2023-05-19T13:38:53.202Z,76.27
2023-05-19T13:41:29.501Z,76.24
2023-05-19T13:44:04.070Z,76.44
2023-05-19T13:49:15.699Z,76.27
2023-05-19T13:51:48.931Z,76.68
2023-05-19T13:54:24.281Z,76.80
2023-05-19T13:56:56.576Z,76.88
2023-05-19T13:59:29.864Z,76.77
2023-05-19T14:02:03.965Z,76.67
2023-05-19T14:04:39.526Z,76.10
2023-05-19T14:07:11.868Z,76.18
2023-05-19T14:09:46.321Z,76.45
2023-05-19T14:12:18.665Z,76.45
2023-05-19T14:14:52.218Z,76.34
2023-05-19T14:17:24.340Z,76.03
2023-05-19T14:19:56.804Z,75.94
2023-05-19T14:22:33.496Z,75.85
2023-05-19T14:25:06.801Z,76.24
2023-05-19T14:27:42.190Z,76.29
2023-05-19T14:30:16.174Z,76.52
2023-05-19T14:32:48.952Z,76.71
2023-05-19T14:35:22.162Z,76.69
2023-05-19T14:37:57.433Z,76.58
2023-05-19T14:40:31.363Z,76.30
2023-05-19T14:43:05.157Z,76.32
2023-05-19T14:45:37.193Z,76.63
2023-05-19T14:48:12.047Z,76.44
2023-05-19T14:50:44.537Z,76.30
2023-05-19T14:53:18.602Z,76.38
2023-05-19T14:55:51.870Z,76.54
2023-05-19T14:58:28.183Z,76.49
2023-05-19T15:01:02.609Z,76.86
2023-05-19T15:03:35.439Z,76.70
2023-05-19T15:06:14.512Z,76.60
2023-05-19T15:08:46.798Z,76.99
2023-05-19T15:11:20.993Z,76.81
2023-05-19T15:13:51.394Z,77.27
2023-05-19T15:16:24.374Z,77.27
2023-05-19T15:18:57.047Z,77.05
2023-05-19T15:21:29.339Z,77.10
2023-05-19T15:24:01.577Z,77.30
2023-05-19T15:26:33.946Z,77.39
2023-05-19T15:29:06.116Z,77.23
2023-05-19T15:31:39.719Z,77.30
2023-05-19T15:34:12.820Z,77.38
2023-05-19T15:36:46.128Z,77.50
2023-05-19T15:39:19.245Z,77.64
2023-05-19T15:41:53.965Z,77.54
2023-05-19T15:44:28.833Z,77.55
2023-05-19T15:47:04.475Z,77.48
2023-05-19T15:49:36.860Z,77.51
2023-05-19T15:52:09.426Z,77.66
2023-05-19T15:54:41.735Z,77.79
2023-05-19T15:57:14.334Z,77.81
2023-05-19T15:59:46.805Z,78.00
2023-05-19T16:02:19.590Z,77.99
2023-05-19T16:04:52.370Z,77.98
2023-05-19T16:07:24.692Z,78.10
2023-05-19T16:09:56.990Z,78.21
2023-05-19T16:12:30.562Z,78.38
2023-05-19T16:15:03.295Z,78.33
2023-05-19T16:17:36.281Z,78.27
2023-05-19T16:20:13.210Z,78.23
2023-05-19T16:22:45.810Z,78.32
2023-05-19T16:25:19.694Z,78.45
2023-05-19T16:27:53.466Z,78.45
2023-05-19T16:30:31.296Z,78.16
2023-05-19T16:33:04.025Z,78.39
2023-05-19T16:35:36.393Z,78.54
2023-05-19T16:38:08.755Z,78.39
2023-05-19T16:40:41.668Z,78.42
2023-05-19T16:43:13.954Z,78.66
2023-05-19T16:45:46.464Z,78.63
2023-05-19T16:48:18.471Z,78.60
2023-05-19T16:50:52.228Z,78.53
2023-05-19T16:53:25.912Z,78.74
2023-05-19T16:55:59.286Z,78.64
2023-05-19T16:58:31.531Z,78.57
2023-05-19T17:01:04.259Z,78.58
2023-05-19T17:03:36.800Z,78.70
2023-05-19T17:06:09.234Z,78.71
2023-05-19T17:08:41.362Z,78.86
2023-05-19T17:11:59.145Z,78.69
2023-05-19T17:14:32.179Z,78.97
2023-05-19T17:17:05.136Z,79.04
2023-05-19T17:19:37.390Z,78.92
2023-05-19T17:22:15.149Z,79.04
2023-05-19T17:24:47.392Z,78.94
2023-05-19T17:27:19.353Z,78.85
2023-05-19T17:29:55.085Z,78.97
2023-05-19T17:32:30.256Z,78.92
2023-05-19T17:35:03.208Z,78.91
2023-05-19T17:37:36.541Z,78.90
2023-05-19T17:40:11.695Z,78.87
2023-05-19T17:42:44.289Z,79.07
2023-05-19T17:45:16.890Z,79.08
2023-05-19T17:47:49.841Z,79.04
2023-05-19T17:50:22.656Z,79.13
2023-05-19T17:52:57.930Z,79.15
2023-05-19T17:55:32.217Z,79.23
2023-05-19T17:58:05.807Z,79.42
2023-05-19T18:00:38.881Z,79.46
2023-05-19T18:03:12.883Z,79.33
2023-05-19T18:05:46.097Z,79.41
2023-05-19T18:08:20.753Z,79.25
2023-05-19T18:10:54.434Z,79.42
2023-05-19T18:13:26.429Z,79.41
2023-05-19T18:16:00.029Z,79.50
2023-05-19T18:18:34.682Z,79.50
2023-05-19T18:21:06.892Z,79.64
2023-05-19T18:23:39.388Z,79.64
2023-05-19T18:26:14.478Z,79.71
2023-05-19T18:28:46.526Z,79.73
2023-05-19T18:31:20.216Z,79.76
2023-05-19T18:33:53.300Z,79.97
2023-05-19T18:36:25.929Z,79.87
2023-05-19T18:39:01.961Z,79.99
2023-05-19T18:41:34.011Z,80.21
2023-05-19T18:44:08.150Z,80.30
2023-05-19T18:46:40.205Z,80.43
2023-05-19T18:49:15.967Z,80.37
2023-05-19T18:51:48.690Z,80.54
2023-05-19T18:54:21.803Z,80.66
2023-05-19T18:56:55.256Z,80.64
2023-05-19T18:59:30.875Z,80.62
2023-05-19T19:02:03.605Z,80.83
2023-05-19T19:04:36.527Z,81.02
2023-05-19T19:07:09.669Z,81.05
2023-05-19T19:09:43.876Z,81.01
2023-05-19T19:12:20.360Z,81.06
2023-05-19T19:14:54.710Z,81.13
2023-05-19T19:17:29.986Z,81.19
2023-05-19T19:20:04.191Z,81.16
2023-05-19T19:22:37.831Z,81.21
2023-05-19T19:25:10.895Z,81.44
2023-05-19T19:27:43.166Z,81.25
2023-05-19T19:30:15.780Z,81.49
2023-05-19T19:32:48.161Z,81.55
2023-05-19T19:35:20.284Z,81.45
2023-05-19T19:37:53.475Z,81.42
2023-05-19T19:40:26.100Z,81.77
2023-05-19T19:42:58.360Z,81.76
2023-05-19T19:45:30.690Z,81.73
2023-05-19T19:48:03.260Z,81.76
2023-05-19T19:50:36.530Z,81.84
2023-05-19T19:53:11.938Z,82.02
2023-05-19T19:55:44.425Z,81.91
2023-05-19T19:58:18.010Z,81.79
2023-05-19T20:00:58.859Z,81.93
2023-05-19T20:03:33.565Z,81.87
2023-05-19T20:06:05.887Z,81.96
2023-05-19T20:08:38.094Z,81.89
2023-05-19T20:11:13.869Z,81.96
2023-05-19T20:13:46.541Z,81.90
2023-05-19T20:16:20.779Z,82.14
2023-05-19T20:18:53.884Z,82.05
2023-05-19T20:21:27.136Z,82.14
2023-05-19T20:23:59.427Z,82.21
2023-05-19T20:26:31.584Z,82.30
2023-05-19T20:29:05.744Z,82.35
2023-05-19T20:31:40.151Z,82.34
2023-05-19T20:34:12.717Z,82.20
2023-05-19T20:36:46.233Z,82.33
2023-05-19T20:39:19.074Z,82.32
2023-05-19T20:41:51.353Z,82.55
2023-05-19T20:44:24.754Z,82.59
2023-05-19T20:46:57.946Z,82.62
2023-05-19T20:49:30.691Z,82.58
2023-05-19T20:52:03.125Z,82.55
2023-05-19T20:54:35.336Z,82.64
2023-05-19T20:57:09.479Z,82.61
2023-05-19T20:59:42.286Z,82.90
2023-05-19T21:02:14.316Z,82.71
2023-05-19T21:04:47.208Z,82.87
2023-05-19T21:07:19.792Z,82.81
2023-05-19T21:09:53.841Z,82.98
2023-05-19T21:12:28.746Z,83.01
2023-05-19T21:15:03.768Z,82.99
2023-05-19T21:17:37.575Z,83.23
2023-05-19T21:20:12.304Z,83.31
2023-05-19T21:22:44.664Z,83.30
2023-05-19T21:25:17.399Z,83.23
2023-05-19T21:27:52.055Z,83.35
2023-05-19T21:30:26.671Z,83.33
2023-05-19T21:33:03.509Z,83.35
2023-05-19T21:35:36.426Z,83.38
2023-05-19T21:38:22.563Z,83.37
2023-05-19T21:40:56.480Z,83.37
2023-05-19T21:43:29.345Z,83.40
2023-05-19T21:46:02.589Z,83.32
2023-05-19T21:48:34.531Z,83.29
2023-05-19T21:51:07.140Z,83.43
2023-05-19T21:53:39.905Z,83.52
2023-05-19T21:56:12.036Z,83.49
2023-05-19T21:58:45.258Z,83.29
2023-05-19T22:01:20.306Z,83.53
2023-05-19T22:03:55.434Z,83.56
2023-05-19T22:06:31.619Z,83.53
2023-05-19T22:09:04.442Z,83.48
2023-05-19T22:11:37.144Z,83.50
2023-05-19T22:14:11.409Z,83.40
2023-05-19T22:16:44.197Z,83.58
2023-05-19T22:19:16.432Z,83.62
2023-05-19T22:21:51.834Z,83.46
2023-05-19T22:24:28.659Z,83.56
2023-05-19T22:27:01.291Z,83.59
2023-05-19T22:29:33.689Z,83.54
2023-05-19T22:32:06.092Z,83.56
2023-05-19T22:34:38.210Z,83.42
2023-05-19T22:37:10.782Z,83.30
2023-05-19T22:39:43.483Z,83.36
2023-05-19T22:42:16.362Z,83.19
2023-05-19T22:44:54.025Z,83.17
2023-05-19T22:47:26.609Z,83.11
2023-05-19T22:49:58.562Z,83.06
2023-05-19T22:52:31.072Z,82.97
2023-05-19T22:55:05.790Z,83.04
2023-05-19T22:57:38.461Z,82.86
2023-05-19T23:00:18.840Z,82.83
2023-05-19T23:02:52.467Z,82.77
2023-05-19T23:05:24.448Z,82.72
2023-05-19T23:07:56.833Z,82.66
2023-05-19T23:10:28.982Z,82.79
2023-05-19T23:13:01.737Z,82.79
2023-05-19T23:15:34.760Z,82.86
2023-05-19T23:18:09.776Z,83.00
2023-05-19T23:20:44.485Z,83.08
2023-05-19T23:23:18.832Z,82.96
2023-05-19T23:25:51.005Z,82.94
2023-05-19T23:28:24.503Z,83.13
2023-05-19T23:30:58.267Z,83.11
2023-05-19T23:33:31.781Z,83.11
2023-05-19T23:36:09.208Z,83.30
2023-05-19T23:38:43.413Z,83.55
2023-05-19T23:41:16.678Z,83.58
2023-05-19T23:43:49.140Z,83.43
2023-05-19T23:46:21.081Z,83.47
2023-05-19T23:48:55.126Z,83.36
2023-05-19T23:51:29.308Z,83.52
2023-05-19T23:54:01.825Z,83.27
